Terminal Aerodrome Forecast
Issued by NWS Albany, NY

Home | Current Version | Previous Version | Text Only | Print | Product List | Glossary On
Versions: 1 2 3 4 5 6 7 8 9 10 11 12 13 14 15 16 17 18 19 20 21 22 23 24 25 26 27 28 29
374
FTUS41 KALY 021136
TAFGFL
TAF
KGFL 021136Z 0212/0312 00000KT 4SM BR SCT004 OVC010
      TEMPO 0212/0214 1SM BR OVC004
     FM021500 VRB03KT 4SM -RA BR OVC007
      TEMPO 0215/0217 1SM -RA BR SCT007 OVC015
     FM021700 09003KT 2SM -RA BR OVC006
     FM022000 02005KT P6SM -DZ OVC009
     FM030600 00000KT 4SM -DZ BR OVC006=

USA.gov is the U.S. government's official web portal to all federal, state and local government web resources and services.